Terminal Aerodrome Forecast
Issued by NWS

Home | Current Version | Previous Version | Text Only | Print | Product List | Glossary On
Versions: 1 2 3 4 5 6 7 8 9 10 11 12 13 14 15 16 17
000
FTUS43 KMQT 271129
TAFSAW
TAF
KSAW 271129Z 2712/2812 34009KT 6SM -SHRA BR OVC007
     FM271700 32004KT P6SM BKN060
     FM272100 03003KT P6SM -SHRA SCT030
     FM280200 17003KT P6SM SCT035
     FM280500 34004KT P6SM FEW080=

USA.gov is the U.S. government's official web portal to all federal, state and local government web resources and services.